Thermal, CA

10:44 PM PDT on May 29, 2015 (GMT -0700)
MAP | | Change Station
CLOSE
Current Station
Personal Weather Station
Location: Arabia, CA
Elevation: 13 ft
Nearby Weather Stations

Elev 13 ft 33.58 °N, 116.23 °W | Updated 44 minutes ago

Clear
Clear
91 °F
Feels Like 88 °F
N
3
Wind Variable Wind from West
Gusts 0.0 mph

Today
High -- | Low -- °F
--% Chance of Precip.
Yesterday
High -- | Low -- °F
Precip. -- in
5:36 AM 7:47 PM
Waxing Gibbous, 88% visible
Pressure 29.78 in
Visibility 10.0 miles
Clouds Clear
Heat Index 88 °F
Dew Point 47 °F
Humidity 23%
Rainfall in
Snow Depth Not available.
UV 0 out of 12
Pollen 4.10 out of 12
Air Quality Not available.
Flu Activity Sporadic
METAR KTRM 300452Z AUTO 03003KT 10SM CLR 26/12 A2977 RMK AO2 SLP082 T02560117 TSNO

More Conditions Fewer Conditions

Pressure 29.78 in
Visibility 10.0 miles
Clouds Clear
Heat Index 88 °F
Dew Point 47 °F
Humidity 23%
Rainfall in
Snow Depth Not available.
UV 0 out of 12
Pollen 4.10 out of 12
Air Quality Not available.
Flu Activity Sporadic
METAR KTRM 300452Z AUTO 03003KT 10SM CLR 26/12 A2977 RMK AO2 SLP082 T02560117 TSNO

More Conditions Fewer Conditions

10-Day Weather Forecast

Almanac

Astronomy

May. 29, 2015 Rise Set
Actual Time
Civil Twilight
Nautical Twilight
Astronomical Twilight
Moon
Length of Visible Light
Length of Day
Tomorrow will be .
, % of the Moon is Illuminated

Today's Extremes

State Highs State Lows

Community

WunderPhotos

Upload Photos

1,825,473 photos uploaded!

WunderBlogs® & News

Nearby

Air Quality

  Air Quality AQ Index Pollutant
Not available.

Snow Depth

Station Depth Elevation

Earthquake Activity

City Distance Mag. Time & Date
Minimum magnitude displayed is 2.5.

Coastal Water Temperatures

Place Temperature

Stations

Nearby Weather Stations

Station Location Temp. Windchill Dew Point Humidity Wind Precip. Elev Updated Type